createdAt,value
2019-03-18T00:00:45.593Z,5.13
2019-03-18T00:03:50.031Z,5.16
2019-03-18T00:06:54.794Z,5.33
2019-03-18T00:09:59.097Z,5.22
2019-03-18T00:13:03.407Z,5.16
2019-03-18T00:16:07.708Z,5.07
2019-03-18T00:19:11.973Z,5.00
2019-03-18T00:22:16.455Z,4.99
2019-03-18T00:25:20.986Z,5.01
2019-03-18T00:28:25.394Z,5.07
2019-03-18T00:31:29.827Z,5.09
2019-03-18T00:34:34.107Z,5.13
2019-03-18T00:37:38.507Z,5.14
2019-03-18T00:40:42.890Z,5.32
2019-03-18T00:43:47.198Z,5.27
2019-03-18T00:46:52.075Z,5.25
2019-03-18T00:49:56.507Z,5.25
2019-03-18T00:53:00.904Z,5.32
2019-03-18T00:56:05.382Z,5.42
2019-03-18T00:59:09.798Z,5.43
2019-03-18T01:02:14.117Z,5.47
2019-03-18T01:05:18.480Z,5.58
2019-03-18T01:08:23.170Z,5.58
2019-03-18T01:11:27.592Z,5.59
2019-03-18T01:14:31.888Z,5.58
2019-03-18T01:17:36.300Z,5.52
2019-03-18T01:25:41.534Z,5.41
2019-03-18T01:28:45.896Z,5.40
2019-03-18T01:31:50.194Z,5.36
2019-03-18T01:34:54.476Z,5.41
2019-03-18T01:37:58.905Z,5.50
2019-03-18T01:41:03.195Z,5.49
2019-03-18T01:44:07.457Z,5.37
2019-03-18T01:47:11.748Z,5.40
2019-03-18T01:50:16.110Z,5.48
2019-03-18T01:53:21.832Z,5.26
2019-03-18T01:56:27.321Z,5.24
2019-03-18T01:59:31.752Z,5.33
2019-03-18T02:02:36.169Z,5.20
2019-03-18T02:05:40.442Z,5.16
2019-03-18T02:08:44.827Z,5.20
2019-03-18T02:11:49.128Z,5.27
2019-03-18T02:14:53.401Z,5.30
2019-03-18T02:17:57.669Z,5.27
2019-03-18T02:21:01.941Z,5.15
2019-03-18T02:24:06.807Z,5.11
2019-03-18T02:27:11.122Z,5.12
2019-03-18T02:30:15.920Z,5.20
2019-03-18T02:33:20.394Z,5.25
2019-03-18T02:36:24.666Z,5.27
2019-03-18T02:39:28.936Z,5.27
2019-03-18T02:42:33.218Z,5.30
2019-03-18T02:45:37.487Z,5.40
2019-03-18T02:48:41.780Z,5.38
2019-03-18T02:51:47.535Z,5.34
2019-03-18T02:54:51.831Z,5.43
2019-03-18T02:57:56.141Z,5.47
2019-03-18T03:01:00.403Z,5.54
2019-03-18T03:04:04.697Z,5.56
2019-03-18T03:07:09.179Z,5.55
2019-03-18T03:10:13.897Z,5.58
2019-03-18T03:13:18.157Z,5.64
2019-03-18T03:16:27.149Z,5.58
2019-03-18T03:19:28.557Z,5.59
2019-03-18T03:22:32.911Z,5.48
2019-03-18T03:25:37.201Z,5.27
2019-03-18T03:28:41.448Z,4.96
2019-03-18T03:31:45.850Z,4.59
2019-03-18T03:34:51.986Z,4.59
2019-03-18T03:37:57.934Z,4.62
2019-03-18T03:41:03.985Z,4.56
2019-03-18T03:44:08.283Z,4.60
2019-03-18T03:47:14.982Z,4.68
2019-03-18T03:50:19.262Z,4.85
2019-03-18T03:53:23.538Z,4.82
2019-03-18T03:56:27.915Z,4.82
2019-03-18T03:59:34.901Z,4.95
2019-03-18T04:02:39.613Z,5.00
2019-03-18T04:05:45.783Z,5.05
2019-03-18T04:08:50.076Z,5.09
2019-03-18T04:11:54.595Z,5.04
2019-03-18T04:14:58.856Z,4.95
2019-03-18T04:18:03.124Z,4.71
2019-03-18T04:21:07.500Z,4.70
2019-03-18T04:24:11.859Z,4.77
2019-03-18T04:27:18.011Z,4.89
2019-03-18T04:30:22.276Z,4.96
2019-03-18T04:33:28.452Z,4.90
2019-03-18T04:36:32.745Z,4.93
2019-03-18T04:39:37.018Z,4.88
2019-03-18T04:42:44.129Z,4.89
2019-03-18T04:45:51.616Z,4.88
2019-03-18T04:48:58.495Z,4.91
2019-03-18T04:52:02.735Z,4.94
2019-03-18T04:55:07.218Z,4.98
2019-03-18T04:58:11.492Z,5.00
2019-03-18T05:01:15.916Z,4.97
2019-03-18T05:04:21.289Z,4.97
2019-03-18T05:07:25.564Z,5.00
2019-03-18T05:10:29.857Z,4.90
2019-03-18T05:13:37.053Z,5.00
2019-03-18T05:16:42.915Z,5.04
2019-03-18T05:19:48.651Z,5.09
2019-03-18T05:22:54.717Z,5.12
2019-03-18T05:25:58.993Z,5.13
2019-03-18T05:29:03.259Z,5.10
2019-03-18T05:32:07.534Z,5.07
2019-03-18T05:35:15.127Z,5.07
2019-03-18T05:38:19.433Z,5.08
2019-03-18T05:41:23.730Z,5.13
2019-03-18T05:44:28.003Z,5.15
2019-03-18T05:47:39.368Z,5.16
2019-03-18T05:50:39.907Z,5.30
2019-03-18T05:53:44.187Z,5.29
2019-03-18T05:56:48.503Z,5.30
2019-03-18T05:59:52.788Z,5.32
2019-03-18T06:02:57.067Z,5.38
2019-03-18T06:06:01.365Z,5.41
2019-03-18T06:09:07.062Z,5.37
2019-03-18T06:12:11.369Z,5.44
2019-03-18T06:15:15.646Z,5.56
2019-03-18T06:18:20.031Z,5.63
2019-03-18T06:21:24.309Z,5.65
2019-03-18T06:24:28.577Z,5.68
2019-03-18T06:27:34.065Z,5.72
2019-03-18T06:30:38.342Z,5.72
2019-03-18T06:33:42.643Z,5.74
2019-03-18T06:36:46.937Z,5.76
2019-03-18T06:39:51.260Z,5.70
2019-03-18T06:42:55.614Z,5.56
2019-03-18T06:45:59.890Z,5.52
2019-03-18T06:49:04.170Z,5.55
2019-03-18T06:52:08.472Z,5.55
2019-03-18T06:55:12.953Z,5.54
2019-03-18T06:58:17.240Z,5.52
2019-03-18T07:01:21.532Z,5.55
2019-03-18T07:04:25.808Z,5.56
2019-03-18T07:07:30.089Z,5.61
2019-03-18T07:10:34.358Z,5.66
2019-03-18T07:13:40.070Z,5.77
2019-03-18T07:16:44.585Z,5.86
2019-03-18T07:19:51.835Z,5.92
2019-03-18T07:22:56.375Z,5.92
2019-03-18T07:26:00.687Z,5.90
2019-03-18T07:29:04.968Z,5.90
2019-03-18T07:32:09.355Z,5.95
2019-03-18T07:35:13.834Z,5.77
2019-03-18T07:38:18.124Z,5.68
2019-03-18T07:41:22.479Z,5.66
2019-03-18T07:44:26.733Z,5.76
2019-03-18T07:47:31.009Z,5.73
2019-03-18T07:50:35.291Z,5.66
2019-03-18T07:53:43.541Z,5.81
2019-03-18T07:56:50.629Z,5.50
2019-03-18T07:59:56.096Z,5.07
2019-03-18T08:03:03.295Z,5.00
2019-03-18T08:06:06.687Z,5.07
2019-03-18T08:09:11.114Z,5.10
2019-03-18T08:12:15.572Z,5.17
2019-03-18T08:15:21.403Z,5.18
2019-03-18T08:18:25.679Z,5.25
2019-03-18T08:21:29.968Z,5.20
2019-03-18T08:24:34.276Z,5.17
2019-03-18T08:27:38.669Z,5.29
2019-03-18T08:30:43.038Z,5.44
2019-03-18T08:33:48.802Z,5.69
2019-03-18T08:36:55.265Z,5.87
2019-03-18T08:40:02.203Z,6.02
2019-03-18T08:43:06.520Z,5.97
2019-03-18T08:46:10.836Z,5.61
2019-03-18T08:49:15.257Z,4.98
2019-03-18T08:52:19.532Z,4.78
2019-03-18T08:55:23.839Z,4.75
2019-03-18T08:58:28.114Z,4.76
2019-03-18T09:01:32.405Z,4.83
2019-03-18T09:04:36.726Z,5.03
2019-03-18T09:07:41.012Z,5.25
2019-03-18T09:10:45.303Z,5.43
2019-03-18T09:13:49.712Z,5.73
2019-03-18T09:16:54.006Z,5.68
2019-03-18T09:20:00.259Z,5.74
2019-03-18T09:23:04.813Z,5.57
2019-03-18T09:26:09.155Z,5.39
2019-03-18T09:29:13.622Z,5.28
2019-03-18T09:32:17.902Z,5.20
2019-03-18T09:35:22.290Z,5.10
2019-03-18T09:38:26.692Z,5.25
2019-03-18T09:41:34.052Z,5.56
2019-03-18T09:44:40.167Z,5.82
2019-03-18T09:47:45.817Z,6.03
2019-03-18T09:50:52.894Z,6.35
2019-03-18T09:53:58.294Z,6.49
2019-03-18T09:57:02.601Z,6.81
2019-03-18T10:00:07.228Z,6.73
2019-03-18T10:03:11.554Z,6.27
2019-03-18T10:06:16.940Z,6.07
2019-03-18T10:09:21.344Z,5.87
2019-03-18T10:12:25.848Z,5.77
2019-03-18T10:15:30.148Z,5.80
2019-03-18T10:18:34.420Z,6.01
2019-03-18T10:21:38.728Z,6.27
2019-03-18T10:24:43.004Z,6.42
2019-03-18T10:27:47.309Z,6.62
2019-03-18T10:30:52.732Z,6.87
2019-03-18T10:33:57.012Z,7.09
2019-03-18T10:37:01.447Z,7.23
2019-03-18T10:40:06.638Z,7.24
2019-03-18T10:43:10.916Z,7.27
2019-03-18T10:46:15.366Z,7.38
2019-03-18T10:49:19.651Z,7.46
2019-03-18T10:52:24.262Z,7.49
2019-03-18T10:55:28.552Z,7.49
2019-03-18T10:58:32.811Z,7.42
2019-03-18T11:01:37.199Z,7.48
2019-03-18T11:04:41.563Z,7.52
2019-03-18T11:07:46.050Z,7.44
2019-03-18T11:10:50.341Z,6.95
2019-03-18T11:13:58.746Z,6.12
2019-03-18T11:17:03.040Z,5.94
2019-03-18T11:20:08.525Z,6.05
2019-03-18T11:23:12.808Z,6.47
2019-03-18T11:26:18.201Z,6.83
2019-03-18T11:29:22.484Z,7.18
2019-03-18T11:32:26.795Z,7.39
2019-03-18T11:35:32.200Z,7.56
2019-03-18T11:38:36.498Z,7.55
2019-03-18T11:41:40.789Z,7.55
2019-03-18T11:44:45.067Z,7.69
2019-03-18T11:47:49.393Z,7.80
2019-03-18T11:50:55.495Z,7.69
2019-03-18T11:53:59.947Z,7.47
2019-03-18T11:57:04.430Z,7.47
2019-03-18T12:00:11.932Z,7.39
2019-03-18T12:03:18.328Z,7.01
2019-03-18T12:06:22.210Z,7.01
2019-03-18T12:09:26.540Z,7.23
2019-03-18T12:12:30.871Z,7.36
2019-03-18T12:15:36.572Z,7.50
2019-03-18T12:18:41.036Z,7.83
2019-03-18T12:21:45.371Z,8.07
2019-03-18T12:24:49.742Z,7.96
2019-03-18T12:27:56.179Z,7.81
2019-03-18T12:31:16.746Z,7.77
2019-03-18T12:34:36.950Z,8.00
2019-03-18T12:37:57.210Z,8.23
2019-03-18T12:41:04.204Z,7.98
2019-03-18T12:44:10.174Z,7.41
2019-03-18T12:47:18.167Z,6.93
2019-03-18T12:50:38.630Z,6.83
2019-03-18T12:53:29.676Z,7.02
2019-03-18T12:56:34.373Z,7.18
2019-03-18T12:59:39.855Z,7.37
2019-03-18T13:02:47.086Z,7.64
2019-03-18T13:05:51.595Z,7.85
2019-03-18T13:08:55.882Z,8.12
2019-03-18T13:12:00.326Z,8.39
2019-03-18T13:15:05.791Z,8.39
2019-03-18T13:18:10.444Z,8.51
2019-03-18T13:21:14.777Z,8.64
2019-03-18T13:24:19.342Z,8.58
2019-03-18T13:27:24.061Z,8.22
2019-03-18T13:30:29.670Z,8.32
2019-03-18T13:33:34.183Z,8.60
2019-03-18T13:36:38.542Z,8.51
2019-03-18T13:39:43.089Z,8.42
2019-03-18T13:42:47.371Z,8.61
2019-03-18T13:45:55.687Z,8.58
2019-03-18T13:48:57.893Z,8.65
2019-03-18T13:52:03.309Z,8.54
2019-03-18T13:55:07.754Z,8.53
2019-03-18T13:58:12.060Z,8.35
2019-03-18T14:01:16.352Z,8.14
2019-03-18T14:04:20.639Z,7.37
2019-03-18T14:07:24.952Z,6.44
2019-03-18T14:10:29.253Z,6.04
2019-03-18T14:13:33.663Z,5.76
2019-03-18T14:16:37.998Z,5.81
2019-03-18T14:19:42.323Z,5.99
2019-03-18T14:22:48.441Z,5.76
2019-03-18T14:25:52.930Z,5.82
2019-03-18T14:28:57.331Z,5.90
2019-03-18T14:32:01.795Z,5.91
2019-03-18T14:35:08.110Z,6.08
2019-03-18T14:38:12.407Z,6.16
2019-03-18T14:41:17.888Z,6.14
2019-03-18T14:44:24.741Z,6.39
2019-03-18T14:47:29.040Z,6.59
2019-03-18T14:50:33.438Z,6.76
2019-03-18T14:53:37.723Z,6.88
2019-03-18T14:56:42.107Z,6.97
2019-03-18T14:59:46.424Z,6.94
2019-03-18T15:02:50.893Z,6.93
2019-03-18T15:05:55.151Z,6.91
2019-03-18T15:09:02.362Z,6.92
2019-03-18T15:12:06.625Z,7.04
2019-03-18T15:15:14.154Z,7.09
2019-03-18T15:18:18.454Z,6.91
2019-03-18T15:21:22.769Z,6.95
2019-03-18T15:24:27.043Z,6.80
2019-03-18T15:27:31.331Z,6.73
2019-03-18T15:30:37.136Z,6.85
2019-03-18T15:33:41.405Z,6.99
2019-03-18T15:36:45.686Z,7.00
2019-03-18T15:39:50.002Z,7.14
2019-03-18T15:42:54.311Z,7.26
2019-03-18T15:45:58.760Z,7.20
2019-03-18T15:49:03.045Z,7.25
2019-03-18T15:52:11.395Z,7.33
2019-03-18T15:55:13.925Z,7.38
2019-03-18T15:58:19.225Z,7.30
2019-03-18T16:01:25.593Z,7.27
2019-03-18T16:04:29.887Z,7.25
2019-03-18T16:07:34.228Z,7.50
2019-03-18T16:10:38.530Z,7.30
2019-03-18T16:13:42.835Z,7.19
2019-03-18T16:16:47.297Z,7.06
2019-03-18T16:19:51.602Z,7.00
2019-03-18T16:22:55.890Z,6.91
2019-03-18T16:26:00.271Z,6.91
2019-03-18T16:29:05.689Z,6.92
2019-03-18T16:32:11.516Z,6.81
2019-03-18T16:35:16.503Z,6.76
2019-03-18T16:38:20.875Z,6.73
2019-03-18T16:41:25.295Z,6.67
2019-03-18T16:44:29.579Z,6.62
2019-03-18T16:47:33.875Z,6.57
2019-03-18T16:50:40.647Z,6.55
2019-03-18T16:53:44.975Z,6.54
2019-03-18T16:56:52.066Z,6.56
2019-03-18T16:59:56.428Z,6.53
2019-03-18T17:03:09.671Z,6.43
2019-03-18T17:06:13.964Z,6.36
2019-03-18T17:09:18.269Z,6.32
2019-03-18T17:12:22.556Z,6.29
2019-03-18T17:15:26.857Z,6.30
2019-03-18T17:18:31.142Z,6.27
2019-03-18T17:21:37.330Z,6.20
2019-03-18T17:24:41.670Z,6.15
2019-03-18T17:27:46.094Z,6.25
2019-03-18T17:30:50.424Z,6.09
2019-03-18T17:33:54.732Z,6.10
2019-03-18T17:36:59.136Z,6.01
2019-03-18T17:40:03.443Z,5.94
2019-03-18T17:43:09.132Z,5.88
2019-03-18T17:46:13.413Z,5.87
2019-03-18T17:49:17.803Z,5.82
2019-03-18T17:52:22.149Z,5.77
2019-03-18T17:55:26.431Z,5.72
2019-03-18T17:58:30.748Z,5.74
2019-03-18T18:01:36.459Z,5.74
2019-03-18T18:04:40.961Z,5.69
2019-03-18T18:07:45.252Z,5.67
2019-03-18T18:10:49.545Z,5.62
2019-03-18T18:13:53.913Z,5.58
2019-03-18T18:16:58.187Z,5.55
2019-03-18T18:20:02.486Z,5.49
2019-03-18T18:23:14.381Z,5.57
2019-03-18T18:26:14.767Z,5.51
2019-03-18T18:29:20.872Z,5.43
2019-03-18T18:32:29.113Z,5.40
2019-03-18T18:35:33.407Z,5.39
2019-03-18T18:38:37.788Z,5.40
2019-03-18T18:41:42.227Z,5.43
2019-03-18T18:44:46.600Z,5.41
2019-03-18T18:47:51.040Z,5.39
2019-03-18T18:50:55.440Z,5.50
2019-03-18T18:53:59.748Z,5.39
2019-03-18T18:57:04.305Z,5.39
2019-03-18T19:00:10.954Z,5.34
2019-03-18T19:03:15.349Z,5.40
2019-03-18T19:06:19.916Z,5.40
2019-03-18T19:09:26.304Z,5.38
2019-03-18T19:12:32.103Z,5.42
2019-03-18T19:15:37.874Z,5.43
2019-03-18T19:18:42.321Z,5.50
2019-03-18T19:21:46.691Z,5.44
2019-03-18T19:24:51.107Z,5.45
2019-03-18T19:27:55.734Z,5.44
2019-03-18T19:31:00.055Z,5.49
2019-03-18T19:34:06.222Z,5.53
2019-03-18T19:37:11.788Z,5.56
2019-03-18T19:40:17.501Z,5.61
2019-03-18T19:43:22.129Z,5.61
2019-03-18T19:46:27.029Z,5.63
2019-03-18T19:49:31.616Z,5.58
2019-03-18T19:52:36.411Z,5.63
2019-03-18T19:55:40.958Z,5.57
2019-03-18T19:58:45.645Z,5.52
2019-03-18T20:01:51.353Z,5.50
2019-03-18T20:04:55.855Z,5.45
2019-03-18T20:08:00.575Z,5.41
2019-03-18T20:11:06.243Z,5.37
2019-03-18T20:14:11.923Z,5.32
2019-03-18T20:17:16.746Z,5.27
2019-03-18T20:20:21.397Z,5.23
2019-03-18T20:23:27.748Z,5.28
2019-03-18T20:26:32.569Z,5.17
2019-03-18T20:29:37.280Z,5.12
2019-03-18T20:32:42.742Z,5.04
2019-03-18T20:35:47.357Z,5.00
2019-03-18T20:38:51.894Z,4.97
2019-03-18T20:41:56.590Z,5.00
2019-03-18T20:45:01.423Z,4.95
2019-03-18T20:48:05.873Z,4.96
2019-03-18T20:51:10.501Z,4.93
2019-03-18T20:54:14.867Z,4.87
2019-03-18T20:57:19.199Z,4.83
2019-03-18T21:00:23.540Z,4.80
2019-03-18T21:03:30.935Z,4.79
2019-03-18T21:06:37.045Z,4.74
2019-03-18T21:09:41.443Z,4.77
2019-03-18T21:12:49.730Z,4.74
2019-03-18T21:15:54.226Z,4.72
2019-03-18T21:19:01.030Z,4.69
2019-03-18T21:22:05.326Z,4.69
2019-03-18T21:25:10.585Z,4.68
2019-03-18T21:28:14.906Z,4.69
2019-03-18T21:31:19.229Z,4.67
2019-03-18T21:34:23.585Z,4.65
2019-03-18T21:37:27.968Z,4.76
2019-03-18T21:40:32.281Z,4.58
2019-03-18T21:43:36.599Z,4.52
2019-03-18T21:46:43.258Z,4.52
2019-03-18T21:49:46.942Z,4.48
2019-03-18T21:52:52.470Z,4.46
2019-03-18T21:55:56.750Z,4.43
2019-03-18T21:59:02.006Z,4.47
2019-03-18T22:02:07.683Z,4.45
2019-03-18T22:05:12.171Z,4.46
2019-03-18T22:08:16.474Z,4.46
2019-03-18T22:11:20.768Z,4.42
2019-03-18T22:14:25.205Z,4.44
2019-03-18T22:17:29.593Z,4.39
2019-03-18T22:20:33.922Z,4.38
2019-03-18T22:23:40.367Z,4.32
2019-03-18T22:26:47.517Z,4.29
2019-03-18T22:29:51.797Z,4.25
2019-03-18T22:32:56.217Z,4.30
2019-03-18T22:36:00.545Z,4.21
2019-03-18T22:39:09.041Z,4.21
2019-03-18T22:42:13.310Z,4.18
2019-03-18T22:45:17.652Z,4.13
2019-03-18T22:48:21.944Z,4.10
2019-03-18T22:51:26.245Z,4.08
2019-03-18T22:54:30.611Z,4.10
2019-03-18T22:57:35.454Z,4.10
2019-03-18T23:00:47.856Z,4.11
2019-03-18T23:03:53.272Z,4.08
2019-03-18T23:06:58.425Z,4.08
2019-03-18T23:10:03.689Z,4.07
2019-03-18T23:13:09.019Z,4.06
2019-03-18T23:16:15.122Z,4.08
2019-03-18T23:19:21.127Z,4.09
2019-03-18T23:22:26.331Z,4.07
2019-03-18T23:25:31.656Z,4.03
2019-03-18T23:28:36.861Z,4.00
2019-03-18T23:31:41.837Z,3.99
2019-03-18T23:34:49.404Z,4.02
2019-03-18T23:37:56.476Z,4.03
2019-03-18T23:41:03.708Z,4.00
2019-03-18T23:44:08.100Z,3.99
2019-03-18T23:47:12.412Z,3.92
2019-03-18T23:50:16.938Z,3.94
2019-03-18T23:53:21.427Z,4.01
2019-03-18T23:56:25.656Z,3.91
2019-03-18T23:59:30.224Z,3.84
